sensor_id;sensor_type;location;lat;lon;timestamp;P1;durP1;ratioP1;P2;durP2;ratioP2
72413;SDS011;60995;52.154;4.498;2024-02-28T00:00:55;10.38;;;4.72;;
72413;SDS011;60995;52.154;4.498;2024-02-28T00:03:11;10.93;;;4.63;;
72413;SDS011;60995;52.154;4.498;2024-02-28T00:05:28;10.05;;;4.55;;
72413;SDS011;60995;52.154;4.498;2024-02-28T00:07:46;8.30;;;4.63;;
72413;SDS011;60995;52.154;4.498;2024-02-28T00:10:03;11.15;;;4.97;;
72413;SDS011;60995;52.154;4.498;2024-02-28T00:12:20;11.73;;;4.70;;
72413;SDS011;60995;52.154;4.498;2024-02-28T00:14:37;13.75;;;5.13;;
72413;SDS011;60995;52.154;4.498;2024-02-28T00:16:54;9.18;;;4.72;;
72413;SDS011;60995;52.154;4.498;2024-02-28T00:19:11;10.60;;;4.93;;
72413;SDS011;60995;52.154;4.498;2024-02-28T00:21:28;12.52;;;4.93;;
72413;SDS011;60995;52.154;4.498;2024-02-28T00:23:46;11.43;;;4.82;;
72413;SDS011;60995;52.154;4.498;2024-02-28T00:26:02;12.00;;;5.13;;
72413;SDS011;60995;52.154;4.498;2024-02-28T00:28:18;13.73;;;5.00;;
72413;SDS011;60995;52.154;4.498;2024-02-28T00:30:35;10.35;;;5.30;;
72413;SDS011;60995;52.154;4.498;2024-02-28T00:32:57;9.32;;;5.10;;
72413;SDS011;60995;52.154;4.498;2024-02-28T00:35:13;10.88;;;5.50;;
72413;SDS011;60995;52.154;4.498;2024-02-28T00:37:30;16.67;;;6.50;;
72413;SDS011;60995;52.154;4.498;2024-02-28T00:39:49;9.68;;;5.25;;
72413;SDS011;60995;52.154;4.498;2024-02-28T00:42:06;11.68;;;5.35;;
72413;SDS011;60995;52.154;4.498;2024-02-28T00:44:22;11.45;;;5.10;;
72413;SDS011;60995;52.154;4.498;2024-02-28T00:46:39;13.27;;;5.40;;
72413;SDS011;60995;52.154;4.498;2024-02-28T00:48:55;11.00;;;5.05;;
72413;SDS011;60995;52.154;4.498;2024-02-28T00:51:12;10.80;;;5.47;;
72413;SDS011;60995;52.154;4.498;2024-02-28T00:53:28;11.77;;;5.00;;
72413;SDS011;60995;52.154;4.498;2024-02-28T00:55:44;13.25;;;4.97;;
72413;SDS011;60995;52.154;4.498;2024-02-28T00:58:00;11.43;;;5.70;;
72413;SDS011;60995;52.154;4.498;2024-02-28T01:00:17;10.85;;;5.10;;
72413;SDS011;60995;52.154;4.498;2024-02-28T01:02:34;8.65;;;4.80;;
72413;SDS011;60995;52.154;4.498;2024-02-28T01:04:50;16.88;;;4.88;;
72413;SDS011;60995;52.154;4.498;2024-02-28T01:07:06;13.43;;;5.60;;
72413;SDS011;60995;52.154;4.498;2024-02-28T01:09:23;17.95;;;5.57;;
72413;SDS011;60995;52.154;4.498;2024-02-28T01:11:39;14.20;;;5.78;;
72413;SDS011;60995;52.154;4.498;2024-02-28T01:13:56;14.02;;;4.70;;
72413;SDS011;60995;52.154;4.498;2024-02-28T01:16:12;20.77;;;5.38;;
72413;SDS011;60995;52.154;4.498;2024-02-28T01:18:28;12.57;;;4.80;;
72413;SDS011;60995;52.154;4.498;2024-02-28T01:20:46;10.10;;;5.10;;
72413;SDS011;60995;52.154;4.498;2024-02-28T01:23:04;16.75;;;5.65;;
72413;SDS011;60995;52.154;4.498;2024-02-28T01:25:20;11.68;;;5.38;;
72413;SDS011;60995;52.154;4.498;2024-02-28T01:27:36;12.70;;;5.80;;
72413;SDS011;60995;52.154;4.498;2024-02-28T01:29:52;11.02;;;4.60;;
72413;SDS011;60995;52.154;4.498;2024-02-28T01:32:09;10.02;;;5.07;;
72413;SDS011;60995;52.154;4.498;2024-02-28T01:34:26;11.82;;;5.95;;
72413;SDS011;60995;52.154;4.498;2024-02-28T01:36:42;9.35;;;4.80;;
72413;SDS011;60995;52.154;4.498;2024-02-28T01:38:58;8.95;;;4.53;;
72413;SDS011;60995;52.154;4.498;2024-02-28T01:41:15;12.52;;;4.93;;
72413;SDS011;60995;52.154;4.498;2024-02-28T01:43:31;12.75;;;5.05;;
72413;SDS011;60995;52.154;4.498;2024-02-28T01:45:48;13.73;;;4.93;;
72413;SDS011;60995;52.154;4.498;2024-02-28T01:48:06;14.00;;;4.80;;
72413;SDS011;60995;52.154;4.498;2024-02-28T01:50:27;11.20;;;4.75;;
72413;SDS011;60995;52.154;4.498;2024-02-28T01:52:44;11.05;;;4.85;;
72413;SDS011;60995;52.154;4.498;2024-02-28T01:55:00;9.57;;;4.75;;
72413;SDS011;60995;52.154;4.498;2024-02-28T01:57:17;9.32;;;4.50;;
72413;SDS011;60995;52.154;4.498;2024-02-28T01:59:34;16.83;;;5.40;;
72413;SDS011;60995;52.154;4.498;2024-02-28T02:01:50;15.20;;;4.72;;
72413;SDS011;60995;52.154;4.498;2024-02-28T02:04:07;11.73;;;4.85;;
72413;SDS011;60995;52.154;4.498;2024-02-28T02:06:23;226.63;;;18.70;;
72413;SDS011;60995;52.154;4.498;2024-02-28T02:08:40;9.88;;;4.95;;
72413;SDS011;60995;52.154;4.498;2024-02-28T02:10:57;14.45;;;5.32;;
72413;SDS011;60995;52.154;4.498;2024-02-28T02:13:13;18.48;;;5.30;;
72413;SDS011;60995;52.154;4.498;2024-02-28T02:15:30;9.13;;;4.75;;
72413;SDS011;60995;52.154;4.498;2024-02-28T02:17:47;14.00;;;5.13;;
72413;SDS011;60995;52.154;4.498;2024-02-28T02:20:04;13.68;;;5.72;;
72413;SDS011;60995;52.154;4.498;2024-02-28T02:22:21;13.43;;;5.50;;
72413;SDS011;60995;52.154;4.498;2024-02-28T02:27:02;11.55;;;4.93;;
72413;SDS011;60995;52.154;4.498;2024-02-28T02:29:20;11.90;;;4.47;;
72413;SDS011;60995;52.154;4.498;2024-02-28T02:31:37;14.05;;;5.75;;
72413;SDS011;60995;52.154;4.498;2024-02-28T02:33:53;15.60;;;5.40;;
72413;SDS011;60995;52.154;4.498;2024-02-28T02:36:11;14.82;;;6.93;;
72413;SDS011;60995;52.154;4.498;2024-02-28T02:38:29;18.00;;;6.43;;
72413;SDS011;60995;52.154;4.498;2024-02-28T02:40:48;13.15;;;6.57;;
72413;SDS011;60995;52.154;4.498;2024-02-28T02:43:08;16.42;;;7.35;;
72413;SDS011;60995;52.154;4.498;2024-02-28T02:45:25;22.15;;;7.68;;
72413;SDS011;60995;52.154;4.498;2024-02-28T02:47:41;17.85;;;7.30;;
72413;SDS011;60995;52.154;4.498;2024-02-28T02:49:59;15.88;;;7.63;;
72413;SDS011;60995;52.154;4.498;2024-02-28T02:52:16;18.35;;;8.02;;
72413;SDS011;60995;52.154;4.498;2024-02-28T02:54:32;17.55;;;8.23;;
72413;SDS011;60995;52.154;4.498;2024-02-28T02:56:49;22.58;;;9.48;;
72413;SDS011;60995;52.154;4.498;2024-02-28T02:59:05;17.67;;;8.02;;
72413;SDS011;60995;52.154;4.498;2024-02-28T03:01:21;15.85;;;8.75;;
72413;SDS011;60995;52.154;4.498;2024-02-28T03:03:37;16.88;;;9.18;;
72413;SDS011;60995;52.154;4.498;2024-02-28T03:05:55;21.70;;;9.55;;
72413;SDS011;60995;52.154;4.498;2024-02-28T03:08:11;20.92;;;10.75;;
72413;SDS011;60995;52.154;4.498;2024-02-28T03:10:32;19.13;;;9.60;;
72413;SDS011;60995;52.154;4.498;2024-02-28T03:12:49;20.27;;;10.93;;
72413;SDS011;60995;52.154;4.498;2024-02-28T03:15:07;22.15;;;11.07;;
72413;SDS011;60995;52.154;4.498;2024-02-28T03:17:24;25.42;;;12.07;;
72413;SDS011;60995;52.154;4.498;2024-02-28T03:19:41;24.95;;;12.52;;
72413;SDS011;60995;52.154;4.498;2024-02-28T03:21:57;24.38;;;11.82;;
72413;SDS011;60995;52.154;4.498;2024-02-28T03:24:14;26.15;;;12.90;;
72413;SDS011;60995;52.154;4.498;2024-02-28T03:26:30;29.90;;;14.18;;
72413;SDS011;60995;52.154;4.498;2024-02-28T03:28:46;29.33;;;14.40;;
72413;SDS011;60995;52.154;4.498;2024-02-28T03:31:03;25.77;;;12.65;;
72413;SDS011;60995;52.154;4.498;2024-02-28T03:33:20;23.70;;;12.75;;
72413;SDS011;60995;52.154;4.498;2024-02-28T03:35:39;21.90;;;12.25;;
72413;SDS011;60995;52.154;4.498;2024-02-28T03:37:55;23.67;;;13.60;;
72413;SDS011;60995;52.154;4.498;2024-02-28T03:40:12;25.30;;;12.98;;
72413;SDS011;60995;52.154;4.498;2024-02-28T03:42:28;19.15;;;12.35;;
72413;SDS011;60995;52.154;4.498;2024-02-28T03:44:44;20.67;;;12.35;;
72413;SDS011;60995;52.154;4.498;2024-02-28T03:47:01;21.38;;;11.90;;
72413;SDS011;60995;52.154;4.498;2024-02-28T03:49:17;21.13;;;12.15;;
72413;SDS011;60995;52.154;4.498;2024-02-28T03:51:40;27.95;;;12.48;;
72413;SDS011;60995;52.154;4.498;2024-02-28T03:53:57;21.90;;;10.90;;
72413;SDS011;60995;52.154;4.498;2024-02-28T03:56:21;19.38;;;10.90;;
72413;SDS011;60995;52.154;4.498;2024-02-28T03:58:41;21.13;;;10.52;;
72413;SDS011;60995;52.154;4.498;2024-02-28T04:00:58;21.25;;;11.15;;
72413;SDS011;60995;52.154;4.498;2024-02-28T04:03:15;24.38;;;10.90;;
72413;SDS011;60995;52.154;4.498;2024-02-28T04:05:32;26.35;;;13.57;;
72413;SDS011;60995;52.154;4.498;2024-02-28T04:07:48;20.05;;;10.68;;
72413;SDS011;60995;52.154;4.498;2024-02-28T04:10:05;20.88;;;11.25;;
72413;SDS011;60995;52.154;4.498;2024-02-28T04:12:22;22.27;;;11.13;;
72413;SDS011;60995;52.154;4.498;2024-02-28T04:14:38;25.63;;;11.85;;
72413;SDS011;60995;52.154;4.498;2024-02-28T04:16:54;23.30;;;11.63;;
72413;SDS011;60995;52.154;4.498;2024-02-28T04:19:11;20.40;;;11.10;;
72413;SDS011;60995;52.154;4.498;2024-02-28T04:21:29;20.88;;;11.52;;
72413;SDS011;60995;52.154;4.498;2024-02-28T04:23:45;23.00;;;11.05;;
72413;SDS011;60995;52.154;4.498;2024-02-28T04:26:01;23.05;;;11.30;;
72413;SDS011;60995;52.154;4.498;2024-02-28T04:28:19;24.38;;;11.63;;
72413;SDS011;60995;52.154;4.498;2024-02-28T04:30:35;23.73;;;12.57;;
72413;SDS011;60995;52.154;4.498;2024-02-28T04:32:52;23.23;;;11.23;;
72413;SDS011;60995;52.154;4.498;2024-02-28T04:35:08;26.13;;;12.52;;
72413;SDS011;60995;52.154;4.498;2024-02-28T04:37:25;27.02;;;13.00;;
72413;SDS011;60995;52.154;4.498;2024-02-28T04:39:41;21.35;;;12.02;;
72413;SDS011;60995;52.154;4.498;2024-02-28T04:41:57;23.17;;;12.82;;
72413;SDS011;60995;52.154;4.498;2024-02-28T04:44:13;19.15;;;11.07;;
72413;SDS011;60995;52.154;4.498;2024-02-28T04:46:29;24.20;;;12.82;;
72413;SDS011;60995;52.154;4.498;2024-02-28T04:48:46;21.83;;;11.57;;
72413;SDS011;60995;52.154;4.498;2024-02-28T04:51:03;20.92;;;12.20;;
72413;SDS011;60995;52.154;4.498;2024-02-28T04:53:19;22.58;;;11.70;;
72413;SDS011;60995;52.154;4.498;2024-02-28T04:55:36;26.42;;;13.27;;
72413;SDS011;60995;52.154;4.498;2024-02-28T04:57:52;27.52;;;12.52;;
72413;SDS011;60995;52.154;4.498;2024-02-28T05:00:08;20.58;;;11.57;;
72413;SDS011;60995;52.154;4.498;2024-02-28T05:02:25;23.42;;;12.20;;
72413;SDS011;60995;52.154;4.498;2024-02-28T05:04:42;24.70;;;10.95;;
72413;SDS011;60995;52.154;4.498;2024-02-28T05:06:59;19.95;;;12.10;;
72413;SDS011;60995;52.154;4.498;2024-02-28T05:09:15;21.48;;;12.05;;
72413;SDS011;60995;52.154;4.498;2024-02-28T05:11:31;26.77;;;12.70;;
72413;SDS011;60995;52.154;4.498;2024-02-28T05:13:48;26.70;;;13.57;;
72413;SDS011;60995;52.154;4.498;2024-02-28T05:16:04;25.40;;;12.98;;
72413;SDS011;60995;52.154;4.498;2024-02-28T05:18:28;25.38;;;13.50;;
72413;SDS011;60995;52.154;4.498;2024-02-28T05:20:46;29.25;;;15.10;;
72413;SDS011;60995;52.154;4.498;2024-02-28T05:23:02;27.15;;;14.52;;
72413;SDS011;60995;52.154;4.498;2024-02-28T05:25:20;25.85;;;13.40;;
72413;SDS011;60995;52.154;4.498;2024-02-28T05:27:36;29.88;;;15.00;;
72413;SDS011;60995;52.154;4.498;2024-02-28T05:29:52;28.90;;;15.52;;
72413;SDS011;60995;52.154;4.498;2024-02-28T05:32:09;31.30;;;16.27;;
72413;SDS011;60995;52.154;4.498;2024-02-28T05:34:25;35.60;;;16.23;;
72413;SDS011;60995;52.154;4.498;2024-02-28T05:36:41;31.80;;;17.27;;
72413;SDS011;60995;52.154;4.498;2024-02-28T05:38:59;28.27;;;15.77;;
72413;SDS011;60995;52.154;4.498;2024-02-28T05:41:17;30.08;;;17.38;;
72413;SDS011;60995;52.154;4.498;2024-02-28T05:43:34;32.30;;;18.38;;
72413;SDS011;60995;52.154;4.498;2024-02-28T05:45:52;38.53;;;19.58;;
72413;SDS011;60995;52.154;4.498;2024-02-28T05:48:09;36.75;;;19.00;;
72413;SDS011;60995;52.154;4.498;2024-02-28T05:50:26;30.27;;;17.90;;
72413;SDS011;60995;52.154;4.498;2024-02-28T05:52:43;37.58;;;19.45;;
72413;SDS011;60995;52.154;4.498;2024-02-28T05:55:03;35.38;;;18.60;;
72413;SDS011;60995;52.154;4.498;2024-02-28T05:57:20;34.17;;;18.98;;
72413;SDS011;60995;52.154;4.498;2024-02-28T05:59:37;37.20;;;19.05;;
72413;SDS011;60995;52.154;4.498;2024-02-28T06:01:53;32.45;;;18.52;;
72413;SDS011;60995;52.154;4.498;2024-02-28T06:04:09;42.22;;;19.45;;
72413;SDS011;60995;52.154;4.498;2024-02-28T06:06:26;36.97;;;19.25;;
72413;SDS011;60995;52.154;4.498;2024-02-28T06:08:42;32.25;;;18.67;;
72413;SDS011;60995;52.154;4.498;2024-02-28T06:10:59;37.47;;;19.95;;
72413;SDS011;60995;52.154;4.498;2024-02-28T06:13:17;36.03;;;18.63;;
72413;SDS011;60995;52.154;4.498;2024-02-28T06:15:33;38.05;;;18.95;;
72413;SDS011;60995;52.154;4.498;2024-02-28T06:17:50;28.00;;;18.25;;
72413;SDS011;60995;52.154;4.498;2024-02-28T06:20:06;33.55;;;19.00;;
72413;SDS011;60995;52.154;4.498;2024-02-28T06:22:23;30.58;;;18.67;;
72413;SDS011;60995;52.154;4.498;2024-02-28T06:24:39;33.83;;;18.73;;
72413;SDS011;60995;52.154;4.498;2024-02-28T06:26:56;32.17;;;18.55;;
72413;SDS011;60995;52.154;4.498;2024-02-28T06:29:12;34.38;;;17.45;;
72413;SDS011;60995;52.154;4.498;2024-02-28T06:31:29;32.55;;;17.52;;
72413;SDS011;60995;52.154;4.498;2024-02-28T06:33:46;39.05;;;17.83;;
72413;SDS011;60995;52.154;4.498;2024-02-28T06:36:03;30.35;;;17.33;;
72413;SDS011;60995;52.154;4.498;2024-02-28T06:38:20;30.70;;;17.52;;
72413;SDS011;60995;52.154;4.498;2024-02-28T06:40:36;29.95;;;17.75;;
72413;SDS011;60995;52.154;4.498;2024-02-28T06:42:52;31.75;;;17.02;;
72413;SDS011;60995;52.154;4.498;2024-02-28T06:45:16;71.63;;;20.10;;
72413;SDS011;60995;52.154;4.498;2024-02-28T06:47:33;30.63;;;17.23;;
72413;SDS011;60995;52.154;4.498;2024-02-28T06:49:49;34.47;;;18.08;;
72413;SDS011;60995;52.154;4.498;2024-02-28T06:52:06;37.55;;;19.50;;
72413;SDS011;60995;52.154;4.498;2024-02-28T06:54:22;33.13;;;18.33;;
72413;SDS011;60995;52.154;4.498;2024-02-28T06:56:39;48.97;;;19.13;;
72413;SDS011;60995;52.154;4.498;2024-02-28T06:58:55;38.78;;;18.08;;
72413;SDS011;60995;52.154;4.498;2024-02-28T07:01:11;33.28;;;19.10;;
72413;SDS011;60995;52.154;4.498;2024-02-28T07:03:29;32.47;;;19.25;;
72413;SDS011;60995;52.154;4.498;2024-02-28T07:05:45;67.38;;;22.52;;
72413;SDS011;60995;52.154;4.498;2024-02-28T07:08:02;35.72;;;19.25;;
72413;SDS011;60995;52.154;4.498;2024-02-28T07:10:19;38.17;;;19.92;;
72413;SDS011;60995;52.154;4.498;2024-02-28T07:12:35;35.15;;;20.80;;
72413;SDS011;60995;52.154;4.498;2024-02-28T07:14:51;98.32;;;24.48;;
72413;SDS011;60995;52.154;4.498;2024-02-28T07:17:08;36.22;;;19.88;;
72413;SDS011;60995;52.154;4.498;2024-02-28T07:19:26;35.97;;;19.48;;
72413;SDS011;60995;52.154;4.498;2024-02-28T07:21:42;35.13;;;19.00;;
72413;SDS011;60995;52.154;4.498;2024-02-28T07:24:00;40.00;;;20.30;;
72413;SDS011;60995;52.154;4.498;2024-02-28T07:26:20;35.65;;;18.80;;
72413;SDS011;60995;52.154;4.498;2024-02-28T07:28:36;41.28;;;20.17;;
72413;SDS011;60995;52.154;4.498;2024-02-28T07:30:53;35.30;;;19.23;;
72413;SDS011;60995;52.154;4.498;2024-02-28T07:33:09;34.70;;;18.50;;
72413;SDS011;60995;52.154;4.498;2024-02-28T07:35:25;662.35;;;66.75;;
72413;SDS011;60995;52.154;4.498;2024-02-28T07:37:42;35.42;;;18.15;;
72413;SDS011;60995;52.154;4.498;2024-02-28T07:39:58;37.25;;;20.02;;
72413;SDS011;60995;52.154;4.498;2024-02-28T07:42:15;45.97;;;19.02;;
72413;SDS011;60995;52.154;4.498;2024-02-28T07:44:31;33.10;;;18.52;;
72413;SDS011;60995;52.154;4.498;2024-02-28T07:46:48;33.00;;;18.27;;
72413;SDS011;60995;52.154;4.498;2024-02-28T07:49:06;33.95;;;19.35;;
72413;SDS011;60995;52.154;4.498;2024-02-28T07:51:22;32.53;;;18.25;;
72413;SDS011;60995;52.154;4.498;2024-02-28T07:53:38;36.75;;;17.70;;
72413;SDS011;60995;52.154;4.498;2024-02-28T07:58:18;30.33;;;17.30;;
72413;SDS011;60995;52.154;4.498;2024-02-28T08:00:35;34.33;;;17.38;;
72413;SDS011;60995;52.154;4.498;2024-02-28T08:02:51;34.30;;;17.63;;
72413;SDS011;60995;52.154;4.498;2024-02-28T08:05:08;28.88;;;17.65;;
72413;SDS011;60995;52.154;4.498;2024-02-28T08:07:24;40.25;;;18.52;;
72413;SDS011;60995;52.154;4.498;2024-02-28T08:09:41;28.35;;;16.23;;
72413;SDS011;60995;52.154;4.498;2024-02-28T08:11:57;34.38;;;17.90;;
72413;SDS011;60995;52.154;4.498;2024-02-28T08:14:14;32.50;;;18.00;;
72413;SDS011;60995;52.154;4.498;2024-02-28T08:16:31;34.55;;;18.05;;
72413;SDS011;60995;52.154;4.498;2024-02-28T08:18:47;34.38;;;18.05;;
72413;SDS011;60995;52.154;4.498;2024-02-28T08:21:03;31.15;;;18.80;;
72413;SDS011;60995;52.154;4.498;2024-02-28T08:23:20;37.42;;;18.90;;
72413;SDS011;60995;52.154;4.498;2024-02-28T08:25:39;39.63;;;18.67;;
72413;SDS011;60995;52.154;4.498;2024-02-28T08:27:56;39.72;;;19.15;;
72413;SDS011;60995;52.154;4.498;2024-02-28T08:30:12;42.40;;;18.13;;
72413;SDS011;60995;52.154;4.498;2024-02-28T08:32:29;32.22;;;18.08;;
72413;SDS011;60995;52.154;4.498;2024-02-28T08:34:45;39.22;;;20.52;;
72413;SDS011;60995;52.154;4.498;2024-02-28T08:37:02;42.70;;;19.33;;
72413;SDS011;60995;52.154;4.498;2024-02-28T08:39:18;33.05;;;18.05;;
72413;SDS011;60995;52.154;4.498;2024-02-28T08:41:34;34.72;;;18.17;;
72413;SDS011;60995;52.154;4.498;2024-02-28T08:43:51;39.50;;;18.75;;
72413;SDS011;60995;52.154;4.498;2024-02-28T08:46:07;35.22;;;17.52;;
72413;SDS011;60995;52.154;4.498;2024-02-28T08:48:25;35.70;;;19.15;;
72413;SDS011;60995;52.154;4.498;2024-02-28T08:50:41;32.10;;;18.98;;
72413;SDS011;60995;52.154;4.498;2024-02-28T08:52:57;31.48;;;18.92;;
72413;SDS011;60995;52.154;4.498;2024-02-28T08:55:14;30.85;;;17.17;;
72413;SDS011;60995;52.154;4.498;2024-02-28T08:57:34;37.58;;;19.52;;
72413;SDS011;60995;52.154;4.498;2024-02-28T08:59:50;38.00;;;19.25;;
72413;SDS011;60995;52.154;4.498;2024-02-28T09:09:03;37.10;;;20.00;;
72413;SDS011;60995;52.154;4.498;2024-02-28T09:11:19;38.05;;;19.05;;
72413;SDS011;60995;52.154;4.498;2024-02-28T09:13:36;36.00;;;19.45;;
72413;SDS011;60995;52.154;4.498;2024-02-28T09:15:55;43.35;;;21.95;;
72413;SDS011;60995;52.154;4.498;2024-02-28T09:18:11;35.30;;;20.25;;
72413;SDS011;60995;52.154;4.498;2024-02-28T09:20:28;38.63;;;20.33;;
72413;SDS011;60995;52.154;4.498;2024-02-28T09:22:44;40.92;;;20.98;;
72413;SDS011;60995;52.154;4.498;2024-02-28T09:25:03;41.30;;;19.88;;
72413;SDS011;60995;52.154;4.498;2024-02-28T09:27:27;36.63;;;19.30;;
72413;SDS011;60995;52.154;4.498;2024-02-28T09:30:33;40.75;;;19.75;;
72413;SDS011;60995;52.154;4.498;2024-02-28T09:35:54;35.88;;;18.77;;
72413;SDS011;60995;52.154;4.498;2024-02-28T09:38:18;30.50;;;17.58;;
72413;SDS011;60995;52.154;4.498;2024-02-28T09:40:45;29.45;;;16.42;;
72413;SDS011;60995;52.154;4.498;2024-02-28T09:43:07;30.08;;;16.58;;
72413;SDS011;60995;52.154;4.498;2024-02-28T09:46:03;29.75;;;17.95;;
72413;SDS011;60995;52.154;4.498;2024-02-28T09:48:29;31.55;;;16.20;;
72413;SDS011;60995;52.154;4.498;2024-02-28T09:50:49;25.98;;;15.55;;
72413;SDS011;60995;52.154;4.498;2024-02-28T09:53:34;38.35;;;18.75;;
72413;SDS011;60995;52.154;4.498;2024-02-28T09:55:51;34.40;;;17.35;;
72413;SDS011;60995;52.154;4.498;2024-02-28T09:58:25;27.67;;;18.95;;
72413;SDS011;60995;52.154;4.498;2024-02-28T10:00:45;31.27;;;18.25;;
72413;SDS011;60995;52.154;4.498;2024-02-28T10:03:50;34.60;;;18.23;;
72413;SDS011;60995;52.154;4.498;2024-02-28T10:06:43;31.98;;;18.42;;
72413;SDS011;60995;52.154;4.498;2024-02-28T10:09:16;42.13;;;18.55;;
72413;SDS011;60995;52.154;4.498;2024-02-28T10:11:38;36.72;;;18.02;;
72413;SDS011;60995;52.154;4.498;2024-02-28T10:14:11;37.08;;;19.75;;
72413;SDS011;60995;52.154;4.498;2024-02-28T10:16:35;28.98;;;17.98;;
72413;SDS011;60995;52.154;4.498;2024-02-28T10:18:58;29.52;;;18.27;;
72413;SDS011;60995;52.154;4.498;2024-02-28T10:21:20;33.10;;;17.92;;
72413;SDS011;60995;52.154;4.498;2024-02-28T10:23:41;31.52;;;18.65;;
72413;SDS011;60995;52.154;4.498;2024-02-28T10:26:02;31.10;;;18.13;;
72413;SDS011;60995;52.154;4.498;2024-02-28T10:28:22;31.30;;;18.27;;
72413;SDS011;60995;52.154;4.498;2024-02-28T10:30:46;34.90;;;18.92;;
72413;SDS011;60995;52.154;4.498;2024-02-28T10:33:09;34.35;;;19.48;;
72413;SDS011;60995;52.154;4.498;2024-02-28T10:35:50;34.92;;;19.52;;
72413;SDS011;60995;52.154;4.498;2024-02-28T10:38:09;37.45;;;20.15;;
72413;SDS011;60995;52.154;4.498;2024-02-28T10:40:45;39.97;;;21.23;;
72413;SDS011;60995;52.154;4.498;2024-02-28T10:43:10;36.63;;;20.23;;
72413;SDS011;60995;52.154;4.498;2024-02-28T10:45:32;38.85;;;20.35;;
72413;SDS011;60995;52.154;4.498;2024-02-28T10:47:51;35.75;;;20.98;;
72413;SDS011;60995;52.154;4.498;2024-02-28T10:50:12;32.03;;;19.48;;
72413;SDS011;60995;52.154;4.498;2024-02-28T10:52:33;34.90;;;19.67;;
72413;SDS011;60995;52.154;4.498;2024-02-28T10:54:53;34.40;;;19.73;;
72413;SDS011;60995;52.154;4.498;2024-02-28T10:57:16;33.50;;;20.08;;
72413;SDS011;60995;52.154;4.498;2024-02-28T10:59:58;34.30;;;17.58;;
72413;SDS011;60995;52.154;4.498;2024-02-28T11:02:23;33.55;;;19.40;;
72413;SDS011;60995;52.154;4.498;2024-02-28T11:04:44;35.83;;;19.98;;
72413;SDS011;60995;52.154;4.498;2024-02-28T11:07:03;35.85;;;20.02;;
72413;SDS011;60995;52.154;4.498;2024-02-28T11:09:22;35.17;;;19.52;;
72413;SDS011;60995;52.154;4.498;2024-02-28T11:11:45;36.47;;;20.38;;
72413;SDS011;60995;52.154;4.498;2024-02-28T11:14:01;36.55;;;20.65;;
72413;SDS011;60995;52.154;4.498;2024-02-28T11:16:25;36.55;;;20.15;;
72413;SDS011;60995;52.154;4.498;2024-02-28T11:18:49;35.08;;;19.95;;
72413;SDS011;60995;52.154;4.498;2024-02-28T11:21:14;29.42;;;18.83;;
72413;SDS011;60995;52.154;4.498;2024-02-28T11:23:37;34.45;;;19.83;;
72413;SDS011;60995;52.154;4.498;2024-02-28T11:25:53;36.60;;;20.88;;
72413;SDS011;60995;52.154;4.498;2024-02-28T11:28:09;32.72;;;19.00;;
72413;SDS011;60995;52.154;4.498;2024-02-28T11:30:26;35.88;;;19.95;;
72413;SDS011;60995;52.154;4.498;2024-02-28T11:32:42;29.67;;;18.23;;
72413;SDS011;60995;52.154;4.498;2024-02-28T11:35:00;33.78;;;19.58;;
72413;SDS011;60995;52.154;4.498;2024-02-28T11:37:17;28.40;;;19.00;;
72413;SDS011;60995;52.154;4.498;2024-02-28T11:39:34;30.75;;;18.35;;
72413;SDS011;60995;52.154;4.498;2024-02-28T11:41:52;34.15;;;20.38;;
72413;SDS011;60995;52.154;4.498;2024-02-28T11:44:08;30.75;;;20.63;;
72413;SDS011;60995;52.154;4.498;2024-02-28T11:46:26;35.03;;;19.85;;
72413;SDS011;60995;52.154;4.498;2024-02-28T11:48:43;31.17;;;19.40;;
72413;SDS011;60995;52.154;4.498;2024-02-28T11:51:01;34.70;;;20.80;;
72413;SDS011;60995;52.154;4.498;2024-02-28T11:53:18;33.60;;;20.58;;
72413;SDS011;60995;52.154;4.498;2024-02-28T11:55:34;30.80;;;19.77;;
72413;SDS011;60995;52.154;4.498;2024-02-28T11:57:51;31.02;;;19.20;;
72413;SDS011;60995;52.154;4.498;2024-02-28T12:00:08;30.35;;;18.70;;
72413;SDS011;60995;52.154;4.498;2024-02-28T12:02:28;32.13;;;19.60;;
72413;SDS011;60995;52.154;4.498;2024-02-28T12:04:46;32.55;;;18.10;;
72413;SDS011;60995;52.154;4.498;2024-02-28T12:07:05;28.30;;;17.77;;
72413;SDS011;60995;52.154;4.498;2024-02-28T12:09:23;30.05;;;18.92;;
72413;SDS011;60995;52.154;4.498;2024-02-28T12:11:41;31.33;;;18.23;;
72413;SDS011;60995;52.154;4.498;2024-02-28T12:13:57;33.05;;;18.35;;
